createdAt,value
2023-05-01T00:02:23.758Z,4.45
2023-05-01T00:04:50.989Z,5.13
2023-05-01T00:07:18.285Z,4.57
2023-05-01T00:09:45.716Z,6.28
2023-05-01T00:12:12.911Z,5.28
2023-05-01T00:14:40.077Z,6.25
2023-05-01T00:17:07.225Z,4.45
2023-05-01T00:19:34.390Z,6.40
2023-05-01T00:22:01.554Z,5.43
2023-05-01T00:24:28.621Z,6.93
2023-05-01T00:26:55.729Z,4.57
2023-05-01T00:29:22.917Z,6.00
2023-05-01T00:31:50.179Z,6.90
2023-05-01T00:34:17.366Z,5.60
2023-05-01T00:36:44.548Z,6.53
2023-05-01T00:39:12.289Z,5.15
2023-05-01T00:41:39.500Z,5.55
2023-05-01T00:44:06.605Z,6.20
2023-05-01T00:46:34.751Z,4.85
2023-05-01T00:49:01.922Z,6.28
2023-05-01T00:51:29.889Z,4.60
2023-05-01T00:53:57.394Z,6.30
2023-05-01T00:56:26.353Z,4.78
2023-05-01T00:58:53.532Z,5.55
2023-05-01T01:01:24.381Z,5.63
2023-05-01T01:03:51.868Z,7.47
2023-05-01T01:06:25.242Z,5.07
2023-05-01T01:09:12.638Z,5.47
2023-05-01T01:12:00.010Z,9.15
2023-05-01T01:14:46.279Z,7.43
2023-05-01T01:17:13.416Z,4.97
2023-05-01T01:19:43.622Z,6.68
2023-05-01T01:22:12.943Z,7.78
2023-05-01T01:24:43.153Z,8.43
2023-05-01T01:27:34.196Z,6.05
2023-05-01T01:30:10.189Z,5.78
2023-05-01T01:32:49.471Z,5.30
2023-05-01T01:35:21.110Z,5.53
2023-05-01T01:37:55.556Z,5.20
2023-05-01T01:40:29.826Z,4.88
2023-05-01T01:42:59.681Z,4.65
2023-05-01T01:45:32.222Z,5.00
2023-05-01T01:48:00.551Z,4.47
2023-05-01T01:50:29.110Z,6.13
2023-05-01T01:52:59.364Z,5.57
2023-05-01T01:55:28.256Z,7.65
2023-05-01T01:57:55.462Z,5.43
2023-05-01T02:00:23.207Z,7.35
2023-05-01T02:02:51.399Z,5.68
2023-05-01T02:05:20.046Z,4.40
2023-05-01T02:07:48.216Z,4.60
2023-05-01T02:10:16.222Z,4.57
2023-05-01T02:12:45.464Z,5.28
2023-05-01T02:15:13.478Z,4.68
2023-05-01T02:17:41.757Z,6.03
2023-05-01T02:20:09.816Z,5.70
2023-05-01T02:22:37.558Z,6.57
2023-05-01T02:25:04.936Z,4.43
2023-05-01T02:27:33.477Z,7.65
2023-05-01T02:30:00.658Z,6.57
2023-05-01T02:32:28.539Z,6.00
2023-05-01T02:34:55.785Z,5.35
2023-05-01T02:37:23.005Z,7.50
2023-05-01T02:39:50.295Z,6.03
2023-05-01T02:42:18.456Z,4.10
2023-05-01T02:44:51.273Z,5.80
2023-05-01T02:49:47.046Z,5.90
2023-05-01T02:52:15.273Z,8.45
2023-05-01T02:54:45.206Z,4.88
2023-05-01T02:57:12.894Z,5.55
2023-05-01T02:59:41.050Z,4.53
2023-05-01T03:02:08.263Z,6.45
2023-05-01T03:04:35.489Z,5.57
2023-05-01T03:07:02.655Z,5.93
2023-05-01T03:09:29.780Z,9.40
2023-05-01T03:11:56.911Z,7.28
2023-05-01T03:14:23.986Z,5.90
2023-05-01T03:16:51.251Z,7.00
2023-05-01T03:19:18.357Z,4.70
2023-05-01T03:21:45.516Z,7.53
2023-05-01T03:24:12.634Z,6.03
2023-05-01T03:26:39.811Z,4.97
2023-05-01T03:29:07.022Z,7.28
2023-05-01T03:31:34.196Z,5.47
2023-05-01T03:34:01.428Z,4.47
2023-05-01T03:36:28.660Z,4.82
2023-05-01T03:38:55.793Z,5.53
2023-05-01T03:41:23.501Z,4.22
2023-05-01T03:43:50.628Z,6.18
2023-05-01T03:46:18.165Z,5.65
2023-05-01T03:48:45.310Z,4.97
2023-05-01T03:51:12.396Z,5.22
2023-05-01T03:53:39.522Z,4.40
2023-05-01T03:56:06.661Z,5.10
2023-05-01T03:58:33.894Z,4.88
2023-05-01T04:01:01.112Z,6.00
2023-05-01T04:03:28.694Z,4.85
2023-05-01T04:05:56.261Z,5.57
2023-05-01T04:08:23.601Z,4.32
2023-05-01T04:10:50.996Z,5.00
2023-05-01T04:13:18.227Z,5.43
2023-05-01T04:15:46.702Z,4.75
2023-05-01T04:18:14.339Z,5.20
2023-05-01T04:20:41.542Z,5.05
2023-05-01T04:23:09.541Z,6.22
2023-05-01T04:25:37.494Z,5.13
2023-05-01T04:28:05.399Z,5.38
2023-05-01T04:30:32.732Z,5.90
2023-05-01T04:32:59.965Z,5.65
2023-05-01T04:35:27.139Z,4.93
2023-05-01T04:37:54.282Z,4.85
2023-05-01T04:40:21.343Z,7.93
2023-05-01T04:42:48.507Z,6.18
2023-05-01T04:45:16.177Z,7.13
2023-05-01T04:47:43.929Z,5.75
2023-05-01T04:50:11.809Z,5.20
2023-05-01T04:52:39.141Z,5.82
2023-05-01T04:55:06.719Z,5.82
2023-05-01T04:57:33.931Z,6.68
2023-05-01T05:00:01.253Z,6.88
2023-05-01T05:02:28.498Z,7.28
2023-05-01T05:04:56.394Z,6.78
2023-05-01T05:07:23.736Z,7.85
2023-05-01T05:09:50.855Z,8.60
2023-05-01T05:12:17.943Z,7.85
2023-05-01T05:14:45.315Z,7.15
2023-05-01T05:17:12.384Z,6.18
2023-05-01T05:19:39.540Z,5.75
2023-05-01T05:22:06.729Z,6.43
2023-05-01T05:24:33.818Z,6.50
2023-05-01T05:27:00.891Z,6.45
2023-05-01T05:29:28.032Z,4.95
2023-05-01T05:31:57.142Z,5.13
2023-05-01T05:34:24.266Z,6.90
2023-05-01T05:36:51.481Z,7.20
2023-05-01T05:39:18.575Z,8.32
2023-05-01T05:41:45.711Z,6.15
2023-05-01T05:44:12.835Z,8.77
2023-05-01T05:46:39.996Z,8.25
2023-05-01T05:49:07.233Z,7.50
2023-05-01T05:51:34.415Z,8.77
2023-05-01T05:54:01.534Z,7.38
2023-05-01T05:56:28.705Z,5.40
2023-05-01T05:58:55.873Z,6.55
2023-05-01T06:01:23.019Z,6.75
2023-05-01T06:03:50.178Z,10.93
2023-05-01T06:06:17.357Z,6.63
2023-05-01T06:08:46.190Z,5.60
2023-05-01T06:11:13.351Z,5.65
2023-05-01T06:13:40.483Z,7.50
2023-05-01T06:16:07.871Z,7.10
2023-05-01T06:18:35.092Z,6.00
2023-05-01T06:21:02.254Z,7.88
2023-05-01T06:23:29.493Z,9.02
2023-05-01T06:25:56.558Z,10.02
2023-05-01T06:28:23.654Z,7.25
2023-05-01T06:30:50.937Z,7.32
2023-05-01T06:33:18.086Z,9.05
2023-05-01T06:35:45.366Z,6.88
2023-05-01T06:38:12.435Z,8.02
2023-05-01T06:40:39.619Z,6.13
2023-05-01T06:43:06.849Z,7.80
2023-05-01T06:45:34.069Z,5.97
2023-05-01T06:48:01.364Z,7.88
2023-05-01T06:50:28.969Z,5.68
2023-05-01T06:52:56.071Z,6.97
2023-05-01T06:55:23.314Z,7.55
2023-05-01T06:57:50.462Z,6.43
2023-05-01T07:00:18.064Z,6.88
2023-05-01T07:02:46.557Z,8.38
2023-05-01T07:05:13.928Z,6.45
2023-05-01T07:07:47.309Z,6.13
2023-05-01T07:10:17.596Z,6.68
2023-05-01T07:12:44.755Z,7.85
2023-05-01T07:15:12.308Z,7.32
2023-05-01T07:17:39.523Z,11.23
2023-05-01T07:20:07.026Z,7.70
2023-05-01T07:22:34.190Z,8.25
2023-05-01T07:25:03.055Z,7.10
2023-05-01T07:27:30.267Z,7.00
2023-05-01T07:29:58.330Z,9.00
2023-05-01T07:32:26.051Z,6.60
2023-05-01T07:34:53.385Z,8.82
2023-05-01T07:37:20.494Z,7.78
2023-05-01T07:39:47.631Z,8.85
2023-05-01T07:42:14.739Z,11.00
2023-05-01T07:44:41.910Z,8.18
2023-05-01T07:47:09.030Z,8.70
2023-05-01T07:49:37.926Z,8.52
2023-05-01T07:52:07.585Z,9.82
2023-05-01T07:54:34.977Z,9.70
2023-05-01T07:57:02.151Z,9.70
2023-05-01T07:59:29.488Z,8.80
2023-05-01T08:01:57.156Z,10.45
2023-05-01T08:04:24.525Z,8.05
2023-05-01T08:06:51.824Z,9.25
2023-05-01T08:09:19.051Z,7.90
2023-05-01T08:11:46.197Z,9.65
2023-05-01T08:14:13.385Z,6.85
2023-05-01T08:16:40.693Z,8.75
2023-05-01T08:19:07.964Z,8.85
2023-05-01T08:21:35.288Z,8.40
2023-05-01T08:24:02.468Z,9.15
2023-05-01T08:26:29.581Z,12.25
2023-05-01T08:28:56.662Z,7.15
2023-05-01T08:31:25.335Z,8.60
2023-05-01T08:33:52.491Z,9.43
2023-05-01T08:36:21.341Z,7.93
2023-05-01T08:38:48.589Z,8.32
2023-05-01T08:41:21.514Z,7.72
2023-05-01T08:43:49.120Z,10.90
2023-05-01T08:46:21.597Z,11.85
2023-05-01T08:48:49.257Z,8.20
2023-05-01T08:51:21.211Z,20.23
2023-05-01T08:53:50.697Z,7.60
2023-05-01T08:56:18.092Z,7.20
2023-05-01T08:58:47.995Z,9.13
2023-05-01T09:01:16.515Z,8.77
2023-05-01T09:03:44.883Z,7.43
2023-05-01T09:06:12.529Z,12.52
2023-05-01T09:08:39.909Z,6.13
2023-05-01T09:11:07.077Z,7.05
2023-05-01T09:13:34.267Z,6.15
2023-05-01T09:16:01.678Z,7.60
2023-05-01T09:18:28.895Z,9.55
2023-05-01T09:20:56.349Z,12.05
2023-05-01T09:23:23.563Z,9.18
2023-05-01T09:25:52.083Z,7.85
2023-05-01T09:28:19.274Z,9.38
2023-05-01T09:30:46.454Z,7.30
2023-05-01T09:33:14.601Z,7.38
2023-05-01T09:35:52.068Z,9.35
2023-05-01T09:38:20.222Z,7.65
2023-05-01T09:40:47.452Z,8.20
2023-05-01T09:43:14.622Z,8.48
2023-05-01T09:45:43.059Z,6.90
2023-05-01T09:48:11.604Z,6.85
2023-05-01T09:50:42.156Z,8.25
2023-05-01T09:53:11.116Z,8.18
2023-05-01T09:55:38.319Z,7.03
2023-05-01T09:58:05.904Z,7.63
2023-05-01T10:00:34.803Z,7.22
2023-05-01T10:03:13.381Z,7.18
2023-05-01T10:05:44.516Z,9.07
2023-05-01T10:08:14.962Z,7.38
2023-05-01T10:10:47.134Z,5.60
2023-05-01T10:13:18.252Z,6.47
2023-05-01T10:15:46.814Z,6.55
2023-05-01T10:18:15.372Z,7.75
2023-05-01T10:20:42.892Z,5.82
2023-05-01T10:23:10.960Z,6.70
2023-05-01T10:25:38.152Z,5.82
2023-05-01T10:28:06.313Z,5.25
2023-05-01T10:30:33.720Z,5.60
2023-05-01T10:33:01.044Z,4.85
2023-05-01T10:35:38.179Z,7.13
2023-05-01T10:38:06.177Z,5.65
2023-05-01T10:40:48.983Z,6.55
2023-05-01T10:43:16.895Z,4.93
2023-05-01T10:45:44.833Z,6.70
2023-05-01T10:48:12.298Z,4.22
2023-05-01T10:50:58.635Z,4.10
2023-05-01T10:53:25.793Z,6.90
2023-05-01T10:55:53.034Z,12.77
2023-05-01T10:58:38.653Z,18.95
2023-05-01T11:01:24.665Z,5.53
2023-05-01T11:03:52.190Z,5.57
2023-05-01T11:06:19.555Z,4.97
2023-05-01T11:08:47.328Z,19.67
2023-05-01T11:11:23.577Z,12.70
2023-05-01T11:13:56.950Z,4.97
2023-05-01T11:16:33.098Z,9.63
2023-05-01T11:19:00.333Z,11.20
2023-05-01T11:21:32.867Z,6.00
2023-05-01T11:24:03.590Z,6.50
2023-05-01T11:26:32.464Z,5.65
2023-05-01T11:29:00.607Z,6.20
2023-05-01T11:31:28.906Z,5.03
2023-05-01T11:34:00.332Z,8.75
2023-05-01T11:36:28.362Z,6.60
2023-05-01T11:38:56.777Z,7.75
2023-05-01T11:41:24.537Z,5.88
2023-05-01T11:43:52.101Z,8.40
2023-05-01T11:46:29.245Z,5.93
2023-05-01T11:48:59.606Z,5.25
2023-05-01T11:51:28.037Z,6.72
2023-05-01T11:54:04.537Z,5.93
2023-05-01T11:56:32.389Z,7.68
2023-05-01T11:59:00.764Z,4.95
2023-05-01T12:01:35.102Z,5.75
2023-05-01T12:04:02.750Z,11.23
2023-05-01T12:06:40.420Z,7.30
2023-05-01T12:09:08.787Z,10.52
2023-05-01T12:11:36.192Z,5.28
2023-05-01T12:14:04.116Z,6.30
2023-05-01T12:16:32.343Z,6.80
2023-05-01T12:18:59.645Z,9.68
2023-05-01T12:21:28.117Z,17.48
2023-05-01T12:23:55.417Z,17.90
2023-05-01T12:26:26.404Z,9.10
2023-05-01T12:28:54.419Z,7.82
2023-05-01T12:31:22.228Z,6.65
2023-05-01T12:34:02.532Z,6.80
2023-05-01T12:36:31.704Z,10.18
2023-05-01T12:39:03.505Z,9.35
2023-05-01T12:41:44.398Z,8.27
2023-05-01T12:44:17.942Z,8.30
2023-05-01T12:46:45.516Z,6.90
2023-05-01T12:49:19.604Z,6.30
2023-05-01T12:51:50.524Z,6.47
2023-05-01T12:54:20.736Z,5.45
2023-05-01T12:56:48.013Z,4.20
2023-05-01T12:59:26.253Z,5.75
2023-05-01T13:02:03.678Z,4.82
2023-05-01T13:04:31.164Z,4.45
2023-05-01T13:06:58.713Z,7.18
2023-05-01T13:09:32.636Z,6.45
2023-05-01T13:12:06.716Z,4.90
2023-05-01T13:14:41.917Z,6.07
2023-05-01T13:17:09.813Z,4.80
2023-05-01T13:19:37.263Z,4.53
2023-05-01T13:22:06.447Z,7.85
2023-05-01T13:24:40.774Z,5.75
2023-05-01T13:27:12.410Z,7.63
2023-05-01T13:29:41.734Z,5.68
2023-05-01T13:32:11.368Z,5.25
2023-05-01T13:34:42.394Z,7.05
2023-05-01T13:37:14.487Z,5.05
2023-05-01T13:39:42.847Z,5.55
2023-05-01T13:42:11.948Z,4.25
2023-05-01T13:44:47.237Z,4.68
2023-05-01T13:47:18.145Z,5.35
2023-05-01T13:49:45.560Z,4.97
2023-05-01T13:52:13.099Z,3.75
2023-05-01T13:54:44.066Z,4.35
2023-05-01T13:57:11.271Z,5.45
2023-05-01T13:59:41.975Z,4.25
2023-05-01T14:02:28.526Z,7.07
2023-05-01T14:04:57.632Z,4.45
2023-05-01T14:07:26.823Z,6.78
2023-05-01T14:09:55.041Z,4.35
2023-05-01T14:12:27.752Z,7.15
2023-05-01T14:17:31.892Z,4.32
2023-05-01T14:19:59.363Z,5.07
2023-05-01T14:22:29.597Z,4.32
2023-05-01T14:24:57.611Z,5.63
2023-05-01T14:27:24.848Z,3.92
2023-05-01T14:29:52.026Z,4.72
2023-05-01T14:32:19.167Z,5.03
2023-05-01T14:34:46.454Z,3.80
2023-05-01T14:37:15.280Z,5.00
2023-05-01T14:39:42.425Z,4.72
2023-05-01T14:42:09.551Z,6.00
2023-05-01T14:44:39.860Z,4.50
2023-05-01T14:47:12.391Z,6.70
2023-05-01T14:49:42.741Z,4.30
2023-05-01T14:52:10.830Z,4.50
2023-05-01T14:54:45.444Z,4.20
2023-05-01T14:57:13.205Z,5.07
2023-05-01T14:59:40.975Z,4.10
2023-05-01T15:02:08.211Z,6.05
2023-05-01T15:04:35.479Z,4.80
2023-05-01T15:07:02.737Z,5.05
2023-05-01T15:09:30.485Z,6.20
2023-05-01T15:11:58.478Z,5.80
2023-05-01T15:14:26.456Z,5.43
2023-05-01T15:16:53.677Z,6.07
2023-05-01T15:19:22.503Z,6.32
2023-05-01T15:21:49.628Z,7.18
2023-05-01T15:24:19.489Z,5.68
2023-05-01T15:26:46.633Z,8.43
2023-05-01T15:29:13.790Z,5.35
2023-05-01T15:31:41.068Z,6.25
2023-05-01T15:34:08.339Z,7.53
2023-05-01T15:36:35.465Z,4.25
2023-05-01T15:39:02.636Z,7.00
2023-05-01T15:41:29.754Z,7.30
2023-05-01T15:43:56.941Z,8.10
2023-05-01T15:46:26.652Z,7.32
2023-05-01T15:48:53.775Z,6.60
2023-05-01T15:51:20.982Z,6.05
2023-05-01T15:53:48.146Z,7.00
2023-05-01T15:56:15.227Z,6.00
2023-05-01T15:58:42.393Z,5.03
2023-05-01T16:01:09.570Z,7.07
2023-05-01T16:03:46.451Z,6.80
2023-05-01T16:06:16.306Z,6.32
2023-05-01T16:08:43.733Z,5.07
2023-05-01T16:11:12.424Z,6.70
2023-05-01T16:13:40.232Z,5.63
2023-05-01T16:16:11.545Z,5.00
2023-05-01T16:18:40.696Z,4.95
2023-05-01T16:21:10.034Z,5.07
2023-05-01T16:23:37.770Z,6.90
2023-05-01T16:26:06.092Z,7.10
2023-05-01T16:28:36.643Z,6.50
2023-05-01T16:31:10.457Z,5.40
2023-05-01T16:33:43.445Z,5.60
2023-05-01T16:36:10.587Z,8.77
2023-05-01T16:38:39.327Z,6.95
2023-05-01T16:41:08.261Z,7.15
2023-05-01T16:43:35.833Z,8.48
2023-05-01T16:46:03.940Z,10.98
2023-05-01T16:48:31.644Z,6.68
2023-05-01T16:50:58.793Z,11.77
2023-05-01T16:53:25.991Z,6.80
2023-05-01T16:55:53.218Z,8.68
2023-05-01T16:58:21.064Z,6.30
2023-05-01T17:00:48.234Z,6.55
2023-05-01T17:03:16.205Z,8.95
2023-05-01T17:05:43.355Z,8.05
2023-05-01T17:08:11.702Z,8.48
2023-05-01T17:10:38.876Z,10.18
2023-05-01T17:13:07.061Z,8.50
2023-05-01T17:15:34.234Z,8.07
2023-05-01T17:18:01.539Z,8.98
2023-05-01T17:20:28.729Z,10.00
2023-05-01T17:22:55.923Z,10.07
2023-05-01T17:25:23.023Z,12.45
2023-05-01T17:27:50.106Z,12.65
2023-05-01T17:30:18.403Z,12.88
2023-05-01T17:32:45.717Z,10.70
2023-05-01T17:35:12.935Z,10.32
2023-05-01T17:37:40.090Z,10.98
2023-05-01T17:40:08.895Z,13.10
2023-05-01T17:42:37.398Z,12.23
2023-05-01T17:45:07.325Z,12.98
2023-05-01T17:47:34.824Z,12.82
2023-05-01T17:50:04.738Z,11.88
2023-05-01T17:52:31.930Z,14.05
2023-05-01T17:54:59.070Z,14.60
2023-05-01T17:57:26.842Z,15.10
2023-05-01T17:59:53.971Z,11.25
2023-05-01T18:02:21.886Z,13.02
2023-05-01T18:04:50.192Z,11.30
2023-05-01T18:07:17.440Z,13.63
2023-05-01T18:09:44.688Z,14.27
2023-05-01T18:12:12.402Z,11.13
2023-05-01T18:14:39.508Z,14.10
2023-05-01T18:17:06.810Z,11.52
2023-05-01T18:19:34.194Z,12.38
2023-05-01T18:22:01.442Z,15.88
2023-05-01T18:24:28.569Z,12.65
2023-05-01T18:26:55.720Z,16.83
2023-05-01T18:29:23.065Z,16.80
2023-05-01T18:31:51.031Z,13.07
2023-05-01T18:34:19.118Z,13.82
2023-05-01T18:36:52.109Z,13.50
2023-05-01T18:39:21.889Z,12.40
2023-05-01T18:41:52.317Z,12.55
2023-05-01T18:44:19.427Z,12.13
2023-05-01T18:46:46.628Z,12.32
2023-05-01T18:49:13.750Z,11.75
2023-05-01T18:51:41.008Z,17.98
2023-05-01T18:54:09.938Z,14.98
2023-05-01T18:56:37.229Z,13.90
2023-05-01T18:59:04.435Z,12.02
2023-05-01T19:01:31.720Z,11.48
2023-05-01T19:03:59.963Z,12.02
2023-05-01T19:06:27.659Z,11.73
2023-05-01T19:08:54.892Z,10.98
2023-05-01T19:11:22.086Z,12.00
2023-05-01T19:13:49.266Z,11.77
2023-05-01T19:16:16.402Z,11.95
2023-05-01T19:18:43.580Z,12.90
2023-05-01T19:21:11.172Z,14.45
2023-05-01T19:23:39.851Z,13.75
2023-05-01T19:26:08.027Z,47.55
2023-05-01T19:28:36.637Z,133.65
2023-05-01T19:31:04.864Z,47.50
2023-05-01T19:33:31.984Z,115.00
2023-05-01T19:35:59.128Z,177.77
2023-05-01T19:38:26.285Z,122.30
2023-05-01T19:40:53.390Z,20.67
2023-05-01T19:43:20.545Z,70.82
2023-05-01T19:45:47.749Z,26.92
2023-05-01T19:48:15.015Z,20.10
2023-05-01T19:50:44.111Z,14.80
2023-05-01T19:53:11.605Z,17.38
2023-05-01T19:55:39.963Z,18.15
2023-05-01T19:58:07.169Z,14.77
2023-05-01T20:00:34.296Z,15.18
2023-05-01T20:03:01.530Z,14.07
2023-05-01T20:05:30.807Z,15.43
2023-05-01T20:08:00.368Z,17.20
2023-05-01T20:10:27.674Z,18.80
2023-05-01T20:12:54.802Z,17.13
2023-05-01T20:15:21.933Z,16.45
2023-05-01T20:17:52.383Z,15.60
2023-05-01T20:20:20.173Z,15.95
2023-05-01T20:22:47.434Z,15.57
2023-05-01T20:25:14.670Z,17.27
2023-05-01T20:27:41.863Z,15.30
2023-05-01T20:30:12.631Z,17.42
2023-05-01T20:32:43.914Z,19.50
2023-05-01T20:35:11.616Z,19.25
2023-05-01T20:37:38.953Z,16.10
2023-05-01T20:40:07.334Z,20.10
2023-05-01T20:42:34.465Z,21.60
2023-05-01T20:45:01.583Z,20.88
2023-05-01T20:47:29.485Z,14.40
2023-05-01T20:49:57.316Z,15.55
2023-05-01T20:52:25.525Z,14.80
2023-05-01T20:54:52.668Z,13.30
2023-05-01T20:57:19.846Z,11.80
2023-05-01T20:59:47.968Z,13.55
2023-05-01T21:02:16.224Z,10.80
2023-05-01T21:04:43.778Z,12.52
2023-05-01T21:07:10.924Z,13.10
2023-05-01T21:09:38.095Z,12.35
2023-05-01T21:12:06.473Z,11.85
2023-05-01T21:14:33.609Z,12.10
2023-05-01T21:17:01.015Z,14.55
2023-05-01T21:19:28.258Z,10.40
2023-05-01T21:21:55.547Z,10.40
2023-05-01T21:24:26.010Z,11.15
2023-05-01T21:26:56.218Z,12.63
2023-05-01T21:29:23.422Z,11.88
2023-05-01T21:31:50.611Z,11.00
2023-05-01T21:34:19.188Z,12.52
2023-05-01T21:36:46.384Z,13.90
2023-05-01T21:39:13.532Z,13.18
2023-05-01T21:41:41.209Z,14.35
2023-05-01T21:44:08.877Z,15.65
2023-05-01T21:46:36.350Z,13.70
2023-05-01T21:49:03.602Z,12.50
2023-05-01T21:51:31.825Z,15.23
2023-05-01T21:54:01.119Z,16.65
2023-05-01T21:56:28.558Z,17.52
2023-05-01T21:59:00.750Z,15.63
2023-05-01T22:01:28.412Z,17.13
2023-05-01T22:03:55.759Z,14.00
2023-05-01T22:06:27.034Z,17.83
2023-05-01T22:08:54.226Z,17.98
2023-05-01T22:11:23.169Z,19.63
2023-05-01T22:13:50.345Z,16.63
2023-05-01T22:16:17.514Z,16.65
2023-05-01T22:18:45.554Z,14.63
2023-05-01T22:21:12.649Z,17.00
2023-05-01T22:23:39.727Z,15.20
2023-05-01T22:26:06.807Z,14.98
2023-05-01T22:28:33.902Z,13.05
2023-05-01T22:31:00.963Z,14.52
2023-05-01T22:33:28.036Z,13.32
2023-05-01T22:35:55.305Z,13.50
2023-05-01T22:38:22.473Z,14.38
2023-05-01T22:40:49.620Z,14.32
2023-05-01T22:43:16.693Z,12.75
2023-05-01T22:45:43.924Z,14.55
2023-05-01T22:48:11.237Z,12.48
2023-05-01T22:50:38.458Z,13.77
2023-05-01T22:53:05.709Z,12.93
2023-05-01T22:55:33.424Z,13.32
2023-05-01T22:58:00.546Z,14.20
2023-05-01T23:00:27.792Z,13.27
2023-05-01T23:02:55.011Z,14.30
2023-05-01T23:05:22.197Z,16.38
2023-05-01T23:07:49.317Z,14.82
2023-05-01T23:10:16.818Z,16.60
2023-05-01T23:12:44.555Z,14.98
2023-05-01T23:15:13.491Z,15.68
2023-05-01T23:17:40.715Z,15.75
2023-05-01T23:20:09.416Z,14.63
2023-05-01T23:22:38.248Z,14.60
2023-05-01T23:25:06.305Z,15.23
2023-05-01T23:27:40.334Z,15.63
2023-05-01T23:30:08.046Z,14.18
2023-05-01T23:32:35.264Z,15.00
2023-05-01T23:35:15.558Z,16.15
2023-05-01T23:37:43.764Z,16.20
2023-05-01T23:40:11.098Z,18.20
2023-05-01T23:42:39.309Z,14.85
2023-05-01T23:45:07.666Z,14.68
2023-05-01T23:47:34.989Z,14.18
2023-05-01T23:50:02.565Z,14.35
2023-05-01T23:52:30.060Z,15.35
2023-05-01T23:54:57.182Z,16.27
2023-05-01T23:57:24.405Z,17.17
2023-05-01T23:59:51.547Z,17.08
